Time;durP1;ratioP1;P1;durP2;ratioP2;P2;SDS_P1;SDS_P2;PMS_P1;PMS_P2;Temp;Humidity;BMP_temperature;BMP_pressure;BME280_temperature;BME280_humidity;BME280_pressure;Samples;Min_cycle;Max_cycle;Signal;HPM_P1;HPM_P2
2021/04/09 00:00:25;;;;;;;17.00;10.40;;;;;;;0.92;71.18;96720.88;5049159;28;20055;-65
2021/04/09 00:02:51;;;;;;;17.60;11.35;;;;;;;0.92;71.33;96720.09;5051121;28;20045;-65
2021/04/09 00:05:21;;;;;;;16.52;10.50;;;;;;;0.91;71.31;96721.94;5049339;28;20459;-65
2021/04/09 00:07:49;;;;;;;22.35;11.23;;;;;;;0.91;71.34;96711.22;5050400;28;20051;-65
2021/04/09 00:10:16;;;;;;;17.38;10.52;;;;;;;0.93;71.34;96716.34;5049783;28;20053;-65
2021/04/09 00:12:42;;;;;;;18.10;10.40;;;;;;;0.93;71.29;96713.66;5050236;28;20044;-65
2021/04/09 00:15:10;;;;;;;17.35;10.45;;;;;;;0.95;71.52;96709.69;5050070;28;20419;-65
2021/04/09 00:17:37;;;;;;;20.52;11.05;;;;;;;0.95;71.42;96714.25;5049813;28;20048;-65
2021/04/09 00:20:03;;;;;;;21.55;11.43;;;;;;;0.96;71.53;96708.63;5050261;28;20072;-65
2021/04/09 00:22:29;;;;;;;15.88;10.70;;;;;;;0.98;71.47;96705.69;5049681;28;20075;-65
2021/04/09 00:24:56;;;;;;;19.35;10.90;;;;;;;0.98;71.56;96703.00;5050638;28;20506;-65
2021/04/09 00:27:22;;;;;;;17.55;11.00;;;;;;;1.00;71.69;96701.72;5050064;28;20056;-65
2021/04/09 00:29:48;;;;;;;18.65;11.13;;;;;;;1.00;71.55;96700.91;5047326;28;20103;-65
2021/04/09 00:32:14;;;;;;;17.30;11.15;;;;;;;1.02;71.43;96696.91;5049162;28;20072;-65
2021/04/09 00:34:40;;;;;;;19.02;10.85;;;;;;;1.04;71.39;96704.69;5050125;28;20454;-65
2021/04/09 00:37:06;;;;;;;18.95;10.93;;;;;;;1.04;71.50;96697.47;5049705;28;20094;-65
2021/04/09 00:39:32;;;;;;;14.00;9.18;;;;;;;1.04;71.38;96702.84;5049588;28;20041;-65
2021/04/09 00:41:59;;;;;;;17.83;10.40;;;;;;;1.03;71.22;96697.69;5050361;28;20044;-65
2021/04/09 00:44:25;;;;;;;19.75;10.80;;;;;;;1.02;71.32;96706.81;5048665;28;20044;-65
2021/04/09 00:46:51;;;;;;;16.45;10.48;;;;;;;1.02;71.42;96696.09;5050418;28;20052;-65
2021/04/09 00:49:17;;;;;;;16.60;10.63;;;;;;;1.05;71.30;96706.31;5048508;28;20496;-65
2021/04/09 00:51:43;;;;;;;18.70;11.20;;;;;;;1.03;71.43;96697.69;5050517;28;20118;-65
2021/04/09 00:54:10;;;;;;;15.27;10.10;;;;;;;1.04;71.35;96700.16;5048341;28;20099;-65
2021/04/09 00:56:36;;;;;;;14.05;10.02;;;;;;;1.05;71.17;96700.97;5049703;28;20498;-65
2021/04/09 00:59:04;;;;;;;17.60;10.55;;;;;;;1.04;71.14;96693.94;5049254;28;20053;-65
2021/04/09 01:01:30;;;;;;;16.35;10.63;;;;;;;1.04;71.35;96700.16;5049794;28;20048;-65
2021/04/09 01:03:57;;;;;;;19.10;10.23;;;;;;;1.04;71.19;96694.78;5049949;28;20079;-65
2021/04/09 01:06:23;;;;;;;17.25;10.80;;;;;;;1.05;71.27;96695.59;5048723;28;20496;-65
2021/04/09 01:08:50;;;;;;;17.13;10.32;;;;;;;1.08;70.91;96692.41;5050040;28;20049;-65
2021/04/09 01:11:16;;;;;;;14.70;9.80;;;;;;;1.08;71.00;96689.72;5048443;28;20045;-65
2021/04/09 01:13:45;;;;;;;17.40;10.50;;;;;;;1.09;70.94;96683.28;5050422;28;20059;-65
2021/04/09 01:16:17;;;;;;;15.35;10.07;;;;;;;1.09;70.84;96680.59;5048670;28;20064;-65
2021/04/09 01:18:49;;;;;;;19.63;11.02;;;;;;;1.08;70.61;96672.81;5049780;28;20059;-65
2021/04/09 01:21:21;;;;;;;14.30;9.27;;;;;;;1.04;70.70;96661.78;5048963;28;20507;-65
2021/04/09 01:24:27;;;;;;;18.77;10.30;;;;;;;1.01;71.06;96660.41;5049413;28;20067;-65
2021/04/09 01:27:33;;;;;;;16.27;10.30;;;;;;;1.04;71.10;96659.09;5038835;28;20045;-65
2021/04/09 01:30:32;;;;;;;15.52;9.60;;;;;;;1.05;70.97;96658.06;5007181;28;20041;-65
2021/04/09 01:33:00;;;;;;;16.23;10.20;;;;;;;1.03;70.97;96662.84;5048880;28;20411;-65
2021/04/09 01:35:27;;;;;;;19.15;11.15;;;;;;;1.00;71.02;96660.66;5049432;28;20060;-65
2021/04/09 01:37:58;;;;;;;16.27;9.68;;;;;;;0.99;71.08;96654.50;5048956;28;20047;-65
2021/04/09 01:40:31;;;;;;;15.95;9.70;;;;;;;1.00;71.08;96656.13;5049130;28;20045;-65
2021/04/09 01:43:01;;;;;;;18.05;10.88;;;;;;;1.00;71.31;96653.44;5049414;28;20049;-65
2021/04/09 01:45:28;;;;;;;15.50;10.43;;;;;;;0.99;71.50;96642.94;5049558;28;20041;-65
2021/04/09 01:47:55;;;;;;;17.38;9.93;;;;;;;0.98;71.46;96646.69;5048901;28;20055;-65
2021/04/09 01:50:23;;;;;;;15.75;10.77;;;;;;;1.02;71.29;96647.81;5048522;28;20041;-65
2021/04/09 01:52:51;;;;;;;13.82;9.15;;;;;;;1.01;70.98;96651.56;5049356;28;20075;-65
2021/04/09 01:55:19;;;;;;;13.57;8.85;;;;;;;1.01;70.92;96646.19;5049414;28;20080;-65
2021/04/09 01:57:47;;;;;;;15.85;8.95;;;;;;;1.00;70.76;96642.72;5050121;28;20053;-64
2021/04/09 02:00:17;;;;;;;13.77;9.63;;;;;;;0.97;70.74;96640.50;5048247;28;20052;-65
2021/04/09 02:02:45;;;;;;;14.20;8.50;;;;;;;0.95;70.80;96657.94;5049956;28;20497;-64
2021/04/09 02:05:15;;;;;;;12.93;8.93;;;;;;;0.92;70.86;96642.31;5048274;28;20048;-64
2021/04/09 02:07:43;;;;;;;12.73;8.50;;;;;;;0.89;70.88;96640.13;5053006;28;20053;-64
2021/04/09 02:10:11;;;;;;;16.05;9.35;;;;;;;0.87;70.79;96640.38;5052073;28;20041;-65
2021/04/09 02:12:37;;;;;;;16.67;9.82;;;;;;;0.85;70.66;96636.34;5052547;28;20052;-64
2021/04/09 02:15:07;;;;;;;15.18;9.45;;;;;;;0.81;70.66;96629.84;5052556;28;20049;-65
2021/04/09 02:17:35;;;;;;;15.40;8.90;;;;;;;0.75;70.75;96632.47;5052265;28;20049;-64
2021/04/09 02:20:02;;;;;;;16.73;9.75;;;;;;;0.72;70.93;96643.69;5052837;28;20415;-64
2021/04/09 02:22:28;;;;;;;18.98;9.18;;;;;;;0.69;70.98;96632.66;5051727;28;20057;-64
2021/04/09 02:24:56;;;;;;;15.70;10.20;;;;;;;0.66;71.03;96636.63;5053146;28;20446;-64
2021/04/09 02:27:22;;;;;;;14.95;9.38;;;;;;;0.63;71.12;96633.66;5051123;28;20053;-65
2021/04/09 02:29:49;;;;;;;17.42;9.65;;;;;;;0.60;71.13;96634.94;5052586;28;20045;-64
2021/04/09 02:32:17;;;;;;;15.70;9.57;;;;;;;0.58;71.01;96631.72;5051624;28;20103;-64
2021/04/09 02:34:43;;;;;;;16.35;9.77;;;;;;;0.54;71.06;96627.91;5052191;28;20053;-64
2021/04/09 02:37:09;;;;;;;16.35;9.70;;;;;;;0.52;71.30;96627.31;5051692;28;20095;-64
2021/04/09 02:39:39;;;;;;;15.45;9.70;;;;;;;0.50;71.32;96624.09;5051811;28;20122;-65
2021/04/09 02:42:08;;;;;;;16.38;10.00;;;;;;;0.46;71.51;96622.97;5051718;28;20619;-65
2021/04/09 02:44:35;;;;;;;15.02;9.73;;;;;;;0.45;71.67;96624.03;5051364;28;20550;-64
2021/04/09 02:47:05;;;;;;;14.82;9.65;;;;;;;0.42;71.71;96621.84;5052306;28;20084;-66
2021/04/09 02:49:38;;;;;;;15.65;9.10;;;;;;;0.39;71.83;96617.78;5050938;28;20477;-65
2021/04/09 02:52:06;;;;;;;14.98;9.68;;;;;;;0.38;71.81;96615.34;5051826;28;20044;-65
2021/04/09 02:54:34;;;;;;;14.93;9.52;;;;;;;0.35;71.96;96613.97;5051842;28;20049;-65
2021/04/09 02:57:01;;;;;;;15.27;9.20;;;;;;;0.33;71.86;96612.59;5051423;28;20052;-65
2021/04/09 02:59:30;;;;;;;14.32;8.95;;;;;;;0.31;71.87;96610.16;5051612;28;20048;-65
2021/04/09 03:01:57;;;;;;;19.70;9.90;;;;;;;0.30;71.91;96605.06;5051283;28;20107;-65
2021/04/09 03:04:24;;;;;;;13.82;9.50;;;;;;;0.26;72.00;96602.03;5051782;28;20052;-65
2021/04/09 03:06:50;;;;;;;16.25;9.20;;;;;;;0.24;72.16;96599.63;5050912;28;20562;-65
2021/04/09 03:09:17;;;;;;;13.90;9.23;;;;;;;0.23;71.93;96603.38;5051698;28;20049;-65
2021/04/09 03:11:43;;;;;;;13.75;9.13;;;;;;;0.21;71.76;96594.78;5050983;28;20060;-65
2021/04/09 03:14:10;;;;;;;13.98;9.27;;;;;;;0.18;71.83;96600.63;5051099;28;20060;-65
2021/04/09 03:16:42;;;;;;;14.68;9.32;;;;;;;0.17;71.83;96596.31;5050875;28;20064;-65
2021/04/09 03:19:09;;;;;;;12.90;8.85;;;;;;;0.13;71.86;96597.84;5050717;28;20052;-66
2021/04/09 03:21:35;;;;;;;15.32;9.50;;;;;;;0.09;72.08;96594.03;5051564;28;20055;-65
2021/04/09 03:24:01;;;;;;;17.17;9.73;;;;;;;0.09;72.28;96595.91;5050891;28;20069;-65
2021/04/09 03:26:27;;;;;;;17.02;8.63;;;;;;;0.09;72.06;96595.91;5051319;28;20049;-65
2021/04/09 03:28:53;;;;;;;19.83;10.18;;;;;;;0.06;72.06;96593.75;5050576;28;20120;-65
2021/04/09 03:31:19;;;;;;;16.83;9.35;;;;;;;0.03;72.19;96588.88;5051198;28;20505;-65
2021/04/09 03:33:46;;;;;;;17.02;8.90;;;;;;;0.03;72.16;96592.34;5050688;28;20055;-65
2021/04/09 03:36:12;;;;;;;16.13;9.38;;;;;;;0.01;72.35;96583.75;5051197;28;20049;-65
2021/04/09 03:38:38;;;;;;;17.23;9.38;;;;;;;-0.02;72.55;96587.72;5050389;28;20411;-65
2021/04/09 03:41:04;;;;;;;18.98;8.80;;;;;;;-0.02;72.49;96584.25;5050489;28;20045;-65
2021/04/09 03:43:30;;;;;;;12.55;8.13;;;;;;;-0.02;72.53;96587.72;5050475;28;20132;-65
2021/04/09 03:45:56;;;;;;;14.20;8.27;;;;;;;-0.02;72.57;96586.91;5050798;28;20143;-65
2021/04/09 03:48:22;;;;;;;14.70;8.30;;;;;;;-0.01;72.68;96585.84;5048107;28;20087;-65
2021/04/09 03:50:48;;;;;;;14.75;8.38;;;;;;;-0.02;72.65;96586.91;5050352;28;20094;-65
2021/04/09 03:53:14;;;;;;;12.43;7.57;;;;;;;-0.02;73.00;96589.59;5050830;28;20172;-65
2021/04/09 03:55:41;;;;;;;18.40;8.73;;;;;;;-0.04;72.81;96591.72;5050009;28;20524;-65
2021/04/09 03:58:07;;;;;;;15.02;9.27;;;;;;;-0.05;72.89;96584.75;5050797;28;20489;-66
2021/04/09 04:00:33;;;;;;;14.80;8.85;;;;;;;-0.05;72.90;96579.41;5050275;28;20049;-65
2021/04/09 04:02:59;;;;;;;14.90;8.43;;;;;;;-0.06;72.81;96585.78;5050963;28;20059;-65
2021/04/09 04:05:25;;;;;;;13.90;7.50;;;;;;;-0.07;72.48;96582.28;5049733;28;20075;-65
2021/04/09 04:07:52;;;;;;;12.02;7.78;;;;;;;-0.07;72.59;96581.50;5050597;28;20049;-65
2021/04/09 04:10:18;;;;;;;13.68;8.02;;;;;;;-0.08;72.50;96569.16;5050048;28;20052;-65
2021/04/09 04:12:44;;;;;;;12.48;7.63;;;;;;;-0.11;72.50;96575.81;5050069;28;20533;-65
2021/04/09 04:15:10;;;;;;;12.40;7.32;;;;;;;-0.11;72.63;96575.81;5050401;28;20404;-65
2021/04/09 04:17:36;;;;;;;12.95;7.55;;;;;;;-0.12;72.67;96570.69;5049626;28;20515;-65
2021/04/09 04:20:04;;;;;;;13.07;7.93;;;;;;;-0.12;72.91;96570.69;5050527;28;20070;-66
2021/04/09 04:22:30;;;;;;;14.80;7.10;;;;;;;-0.13;72.85;96577.94;5049521;28;20520;-65
2021/04/09 04:24:57;;;;;;;15.23;6.88;;;;;;;-0.13;72.89;96579.78;5050775;28;20056;-65
2021/04/09 04:27:23;;;;;;;9.38;6.25;;;;;;;-0.14;73.07;96580.84;5048900;28;20049;-65
2021/04/09 04:29:49;;;;;;;12.48;6.78;;;;;;;-0.13;73.15;96582.47;5049864;28;20049;-65
2021/04/09 04:32:15;;;;;;;11.93;6.82;;;;;;;-0.14;72.96;96570.97;5049421;28;20499;-65
2021/04/09 04:34:41;;;;;;;10.73;6.75;;;;;;;-0.13;72.83;96577.13;5050010;28;20045;-65
2021/04/09 04:37:07;;;;;;;13.70;6.63;;;;;;;-0.13;72.91;96572.56;5049801;28;20059;-66
2021/04/09 04:39:33;;;;;;;11.63;7.00;;;;;;;-0.11;72.87;96575.00;5049655;28;20045;-65
2021/04/09 04:42:00;;;;;;;11.23;6.65;;;;;;;-0.11;72.72;96575.00;5050445;28;20052;-65
2021/04/09 04:44:26;;;;;;;15.00;7.20;;;;;;;-0.13;72.73;96574.44;5048900;28;20071;-65
2021/04/09 04:46:52;;;;;;;10.93;6.78;;;;;;;-0.14;72.76;96586.22;5050405;28;20053;-65
2021/04/09 04:49:18;;;;;;;11.35;6.78;;;;;;;-0.18;72.85;96583.19;5048906;28;20055;-65
2021/04/09 04:51:44;;;;;;;12.48;7.45;;;;;;;-0.19;72.85;96588.81;5050395;28;20492;-65
2021/04/09 04:54:10;;;;;;;13.35;6.90;;;;;;;-0.19;73.18;96584.25;5048854;28;20055;-65
2021/04/09 04:56:36;;;;;;;11.35;7.55;;;;;;;-0.18;73.48;96575.16;5049865;28;20069;-65
2021/04/09 04:59:03;;;;;;;15.07;7.25;;;;;;;-0.15;73.29;96587.28;5049307;28;20134;-65
2021/04/09 05:01:29;;;;;;;11.85;6.50;;;;;;;-0.17;73.07;96581.31;5049732;28;20053;-65
2021/04/09 05:03:55;;;;;;;13.48;6.97;;;;;;;-0.17;73.08;96586.69;5050213;28;20075;-64
2021/04/09 05:06:21;;;;;;;14.30;7.22;;;;;;;-0.15;73.25;96577.38;5048687;28;20076;-65
2021/04/09 05:08:47;;;;;;;11.35;7.30;;;;;;;-0.10;73.17;96584.66;5050267;28;20137;-67
2021/04/09 05:11:13;;;;;;;11.45;7.05;;;;;;;-0.07;73.12;96578.81;5048637;28;20045;-65
2021/04/09 05:13:39;;;;;;;11.98;6.50;;;;;;;-0.03;72.80;96585.31;5050346;28;20052;-65
2021/04/09 05:16:07;;;;;;;17.33;6.80;;;;;;;-0.02;72.74;96584.25;5048795;28;20566;-65
2021/04/09 05:18:33;;;;;;;11.30;6.93;;;;;;;0.03;72.44;96587.00;5049777;28;20408;-65
2021/04/09 05:20:59;;;;;;;11.23;6.43;;;;;;;0.06;72.41;96585.72;5049411;28;20099;-65
2021/04/09 05:23:25;;;;;;;13.48;6.38;;;;;;;0.09;72.50;96586.00;5048895;28;20041;-65
2021/04/09 05:25:51;;;;;;;10.93;6.78;;;;;;;0.08;72.02;96586.25;5049405;28;20405;-65
2021/04/09 05:28:17;;;;;;;10.63;6.25;;;;;;;0.07;71.76;96577.44;5048376;28;20052;-65
2021/04/09 05:30:43;;;;;;;12.20;6.53;;;;;;;0.06;72.20;96585.72;5050079;28;20052;-65
2021/04/09 05:33:09;;;;;;;11.77;6.80;;;;;;;0.06;72.38;96588.38;5048360;28;20114;-65
2021/04/09 05:35:35;;;;;;;10.52;6.55;;;;;;;0.08;72.47;96587.06;5050168;28;20064;-65
2021/04/09 05:38:01;;;;;;;9.85;6.18;;;;;;;0.10;72.58;96584.13;5048449;28;20048;-68
2021/04/09 05:40:27;;;;;;;12.05;6.93;;;;;;;0.14;72.86;96583.41;5052388;28;20045;-65
2021/04/09 05:42:58;;;;;;;22.88;6.80;;;;;;;0.19;73.02;96578.13;5052880;28;20048;-65
2021/04/09 05:45:24;;;;;;;14.15;5.75;;;;;;;0.29;73.31;96584.69;5052982;28;20705;-65
2021/04/09 05:47:50;;;;;;;8.77;6.00;;;;;;;0.35;72.46;96592.53;5052929;28;20052;-65
2021/04/09 05:50:18;;;;;;;10.05;6.13;;;;;;;0.39;72.25;96580.28;5052433;28;20059;-65
2021/04/09 05:52:44;;;;;;;8.48;5.47;;;;;;;0.51;71.90;96578.28;5053228;28;20103;-65
2021/04/09 05:55:11;;;;;;;9.95;5.93;;;;;;;0.61;71.70;96582.16;5051873;28;20099;-65
2021/04/09 05:57:37;;;;;;;9.52;5.75;;;;;;;0.71;71.14;96580.41;5053458;28;20049;-65
2021/04/09 06:00:05;;;;;;;11.00;5.20;;;;;;;0.81;70.72;96584.28;5051989;28;20064;-66
2021/04/09 06:02:32;;;;;;;10.50;5.32;;;;;;;0.93;70.92;96574.22;5053469;28;20060;-65
2021/04/09 06:04:58;;;;;;;11.20;5.60;;;;;;;1.03;70.00;96575.16;5052443;28;20049;-65
2021/04/09 06:07:24;;;;;;;12.50;5.38;;;;;;;1.15;69.52;96576.88;5052675;28;20044;-65
2021/04/09 06:09:50;;;;;;;11.65;4.75;;;;;;;1.25;68.85;96572.44;5052661;28;20049;-65
2021/04/09 06:12:16;;;;;;;7.90;4.82;;;;;;;1.34;68.81;96569.28;5052347;28;20049;-65
2021/04/09 06:14:42;;;;;;;11.30;5.35;;;;;;;1.44;68.24;96574.75;5053051;28;20467;-65
2021/04/09 06:17:08;;;;;;;8.98;4.72;;;;;;;1.56;67.83;96573.53;5051679;28;20052;-65
2021/04/09 06:19:34;;;;;;;11.82;5.63;;;;;;;1.64;67.41;96574.94;5053072;28;20131;-65
2021/04/09 06:22:01;;;;;;;9.07;5.22;;;;;;;1.72;66.94;96571.81;5051797;28;20068;-65
2021/04/09 06:24:27;;;;;;;8.93;4.97;;;;;;;1.86;66.20;96571.34;5053033;28;20037;-65
2021/04/09 06:26:53;;;;;;;8.70;4.40;;;;;;;1.93;65.20;96570.09;5051702;28;20500;-65
2021/04/09 06:29:19;;;;;;;8.07;4.65;;;;;;;2.00;65.24;96567.97;5052481;28;20784;-65
2021/04/09 06:31:45;;;;;;;9.60;5.07;;;;;;;2.12;65.10;96572.34;5051991;28;20045;-65
2021/04/09 06:34:11;;;;;;;11.75;6.15;;;;;;;2.19;64.96;96565.66;5052000;28;20139;-65
2021/04/09 06:36:37;;;;;;;12.40;5.47;;;;;;;2.27;63.66;96561.69;5052118;28;20136;-65
2021/04/09 06:39:04;;;;;;;8.35;4.30;;;;;;;2.38;63.99;96557.19;5051188;28;20148;-69
2021/04/09 06:41:31;;;;;;;9.75;4.75;;;;;;;2.46;63.82;96554.03;5052378;28;20053;-69
2021/04/09 06:44:00;;;;;;;10.82;4.80;;;;;;;2.59;63.00;96554.34;5051789;28;20069;-69
2021/04/09 06:46:26;;;;;;;8.40;4.72;;;;;;;2.63;63.03;96556.50;5052145;28;20048;-69
2021/04/09 06:48:52;;;;;;;8.73;5.32;;;;;;;2.70;63.21;96552.50;5051277;28;20090;-69
2021/04/09 06:51:19;;;;;;;9.00;4.85;;;;;;;2.86;63.36;96546.09;5051060;28;20412;-69
2021/04/09 06:53:48;;;;;;;9.93;4.68;;;;;;;3.02;61.48;96546.16;5050635;28;20531;-69
2021/04/09 06:56:15;;;;;;;7.10;4.10;;;;;;;3.11;61.28;96544.56;5051347;28;20052;-68
2021/04/09 06:58:45;;;;;;;7.18;4.10;;;;;;;3.21;59.47;96544.59;5051267;28;20047;-69
2021/04/09 07:01:13;;;;;;;9.27;4.18;;;;;;;3.30;59.50;96542.19;5051332;28;20045;-69
2021/04/09 07:03:39;;;;;;;10.85;4.30;;;;;;;3.49;59.47;96539.78;5051581;28;20056;-67
2021/04/09 07:06:05;;;;;;;9.27;3.88;;;;;;;3.66;58.66;96541.16;5050913;28;20049;-69
2021/04/09 07:08:37;;;;;;;7.30;3.50;;;;;;;3.83;58.05;96535.50;5051811;28;20048;-68
2021/04/09 07:11:04;;;;;;;8.57;4.20;;;;;;;4.03;57.31;96539.25;5050392;28;20045;-69
2021/04/09 07:13:30;;;;;;;7.97;4.22;;;;;;;4.24;56.87;96534.63;5051808;28;20053;-68
2021/04/09 07:15:58;;;;;;;8.60;3.63;;;;;;;4.44;57.14;96535.38;5050809;28;20118;-68
2021/04/09 07:18:48;;;;;;;8.07;3.50;;;;;;;4.66;55.20;96534.25;5051178;28;20406;-68
2021/04/09 07:21:22;;;;;;;5.28;3.42;;;;;;;4.78;54.01;96534.72;5051124;28;20041;-67
2021/04/09 07:23:49;;;;;;;9.70;3.58;;;;;;;5.02;53.47;96534.09;5050860;28;20412;-68
2021/04/09 07:26:39;;;;;;;7.13;3.30;;;;;;;5.32;50.65;96523.09;5050602;28;20440;-68
2021/04/09 07:29:05;;;;;;;5.30;2.67;;;;;;;6.17;49.74;96511.09;5045344;28;20492;-69
2021/04/09 07:31:33;;;;;;;4.35;2.60;;;;;;;7.54;45.55;96522.91;5051477;28;20051;-69
2021/04/09 07:34:00;;;;;;;3.60;2.30;;;;;;;8.63;43.58;96510.75;5050703;28;20149;-68
2021/04/09 07:36:26;;;;;;;4.65;2.47;;;;;;;9.57;41.52;96522.09;5050519;28;20080;-68
2021/04/09 07:38:52;;;;;;;7.90;2.92;;;;;;;10.15;38.99;96511.13;5050709;28;20048;-68
2021/04/09 07:41:19;;;;;;;6.15;2.60;;;;;;;10.68;37.74;96513.03;5049953;28;20500;-70
2021/04/09 07:43:45;;;;;;;9.60;3.22;;;;;;;11.23;34.56;96509.84;5050485;28;20041;-69
2021/04/09 07:46:20;;;;;;;4.82;2.10;;;;;;;11.16;37.53;96512.19;5049619;28;20559;-68
2021/04/09 07:48:49;;;;;;;6.07;2.00;;;;;;;11.74;35.23;96508.28;5051209;28;20053;-68
2021/04/09 07:51:19;;;;;;;4.45;2.20;;;;;;;12.43;35.94;96510.13;5049111;28;20045;-69
2021/04/09 07:53:46;;;;;;;8.63;4.57;;;;;;;13.07;33.45;96511.94;5050917;28;20041;-69
2021/04/09 07:56:14;;;;;;;5.63;2.63;;;;;;;13.35;31.92;96495.84;5049725;28;20052;-70
2021/04/09 07:58:41;;;;;;;5.70;2.50;;;;;;;13.68;31.16;96492.41;5050840;28;20047;-70
2021/04/09 08:01:19;;;;;;;7.07;3.40;;;;;;;14.13;30.77;96492.47;5049713;28;20063;-70
2021/04/09 08:03:46;;;;;;;3.97;2.30;;;;;;;14.29;29.69;96496.19;5050923;28;20045;-69
2021/04/09 08:06:13;;;;;;;6.07;3.20;;;;;;;14.42;31.23;96493.50;5050399;28;20045;-70
2021/04/09 08:08:54;;;;;;;3.50;2.10;;;;;;;14.75;29.17;96483.28;5049691;28;20056;-68
2021/04/09 08:11:22;;;;;;;3.85;1.92;;;;;;;15.19;29.53;96488.19;5050063;28;20041;-69
2021/04/09 08:14:09;;;;;;;5.07;3.13;;;;;;;15.66;29.27;96485.75;5049618;28;20106;-68
2021/04/09 08:16:37;;;;;;;4.28;2.00;;;;;;;15.61;27.76;96483.22;5049064;28;20045;-70
2021/04/09 08:19:07;;;;;;;5.57;2.47;;;;;;;15.64;27.41;96485.28;5049601;28;20542;-71
2021/04/09 08:21:34;;;;;;;5.55;2.15;;;;;;;15.64;28.08;96483.34;5050076;28;20055;-70
2021/04/09 08:24:01;;;;;;;3.78;2.10;;;;;;;16.08;28.98;96482.63;5050023;28;20045;-70
2021/04/09 08:26:28;;;;;;;4.97;2.20;;;;;;;16.41;26.74;96483.13;5049197;28;20056;-70
2021/04/09 08:28:57;;;;;;;5.40;1.75;;;;;;;16.87;26.75;96478.06;5050724;28;20059;-70
2021/04/09 08:31:24;;;;;;;7.78;1.80;;;;;;;17.37;26.52;96479.22;5049237;28;20049;-69
2021/04/09 08:33:50;;;;;;;5.68;1.92;;;;;;;17.71;26.41;96483.13;5050196;28;20186;-70
2021/04/09 08:36:17;;;;;;;5.90;1.90;;;;;;;18.18;26.42;96479.38;5049093;28;20052;-70
2021/04/09 08:38:44;;;;;;;5.15;1.85;;;;;;;18.30;23.34;96480.38;5050170;28;20094;-70
2021/04/09 08:41:12;;;;;;;3.97;2.00;;;;;;;17.21;22.12;96479.25;5049268;28;20052;-71
2021/04/09 08:43:38;;;;;;;4.00;1.60;;;;;;;16.40;24.24;96478.00;5049640;28;20111;-71
2021/04/09 08:46:05;;;;;;;4.70;1.77;;;;;;;16.13;24.31;96480.44;5049934;28;20055;-71
2021/04/09 08:48:32;;;;;;;4.60;1.38;;;;;;;16.33;24.41;96475.84;5049438;28;20094;-70
2021/04/09 08:50:59;;;;;;;6.82;1.85;;;;;;;16.68;22.78;96475.16;5050650;28;20049;-71
2021/04/09 08:53:27;;;;;;;2.67;1.50;;;;;;;16.56;23.36;96473.31;5048558;28;20048;-70
2021/04/09 08:55:53;;;;;;;5.00;1.83;;;;;;;16.40;23.17;96473.28;5050264;28;20041;-70
2021/04/09 08:58:19;;;;;;;3.08;1.70;;;;;;;16.28;24.29;96478.84;5048626;28;20497;-69
2021/04/09 09:00:47;;;;;;;4.50;1.40;;;;;;;16.32;23.31;96468.75;5050254;28;20051;-70
2021/04/09 09:03:22;;;;;;;4.85;1.40;;;;;;;16.59;24.34;96461.59;5047955;28;20049;-70
2021/04/09 09:06:00;;;;;;;3.67;1.52;;;;;;;16.97;22.58;96464.91;5050023;28;20045;-70
2021/04/09 09:08:59;;;;;;;5.00;1.90;;;;;;;16.58;23.08;96464.69;5048987;28;20098;-69
2021/04/09 09:11:47;;;;;;;4.47;1.50;;;;;;;16.48;23.04;96460.53;5048428;28;20045;-69
2021/04/09 09:14:41;;;;;;;3.28;1.65;;;;;;;16.86;22.43;96465.47;5049331;28;20051;-69
2021/04/09 09:17:40;;;;;;;2.25;1.35;;;;;;;17.09;22.12;96467.56;5051282;28;20061;-69
2021/04/09 09:20:11;;;;;;;6.30;1.52;;;;;;;17.47;21.01;96466.84;4969218;28;20442;-70
2021/04/09 09:22:47;;;;;;;4.63;1.70;;;;;;;17.97;20.65;96462.44;5036568;28;20536;-69
2021/04/09 09:25:14;;;;;;;3.28;1.70;;;;;;;17.79;21.54;96451.03;5050663;28;20041;-70
2021/04/09 09:27:48;;;;;;;8.05;1.77;;;;;;;18.36;21.42;96446.63;5051344;28;20048;-70
2021/04/09 09:30:29;;;;;;;2.78;1.50;;;;;;;18.95;20.38;96445.31;5051157;28;20693;-70
2021/04/09 09:33:19;;;;;;;7.47;1.75;;;;;;;18.89;20.20;96446.78;5050817;28;20049;-70
2021/04/09 09:36:06;;;;;;;4.38;1.33;;;;;;;18.64;18.65;96435.31;5053577;28;20413;-69
2021/04/09 09:38:55;;;;;;;5.22;1.50;;;;;;;18.85;18.36;96440.41;5045343;28;20087;-69
2021/04/09 09:41:40;;;;;;;8.30;1.70;;;;;;;19.24;20.29;96431.94;5048634;28;20063;-70
2021/04/09 09:44:28;;;;;;;5.70;1.70;;;;;;;18.87;18.19;96427.03;5049081;28;20511;-70
2021/04/09 09:46:55;;;;;;;3.63;1.60;;;;;;;18.98;20.16;96416.97;5048895;28;20056;-69
2021/04/09 09:49:22;;;;;;;3.35;1.50;;;;;;;19.19;21.13;96426.72;5029548;28;20060;-70
2021/04/09 09:51:49;;;;;;;4.70;1.40;;;;;;;19.37;19.65;96422.28;5035354;28;20045;-70
2021/04/09 09:54:27;;;;;;;3.63;1.63;;;;;;;19.02;18.99;96412.31;5049274;28;20401;-69
2021/04/09 09:56:55;;;;;;;7.35;1.65;;;;;;;18.78;17.86;96415.47;5049491;28;20090;-69
2021/04/09 09:59:22;;;;;;;6.93;1.85;;;;;;;18.58;19.15;96408.38;5048879;28;20049;-69
2021/04/09 10:01:53;;;;;;;7.60;2.40;;;;;;;18.54;19.81;96407.56;5049886;28;20052;-70
2021/04/09 10:04:19;;;;;;;6.97;1.63;;;;;;;18.67;21.24;96397.91;5048745;28;20045;-71
2021/04/09 10:06:50;;;;;;;5.28;2.20;;;;;;;18.50;19.44;96386.22;5049631;28;20049;-71
2021/04/09 10:09:30;;;;;;;2.67;1.60;;;;;;;18.46;19.97;96387.31;5048347;28;20060;-71
2021/04/09 10:11:58;;;;;;;3.60;1.65;;;;;;;18.50;19.08;96386.22;5049874;28;20527;-71
2021/04/09 10:14:28;;;;;;;8.55;1.70;;;;;;;18.12;20.62;96389.09;5048497;28;20041;-71
2021/04/09 10:16:59;;;;;;;3.72;1.38;;;;;;;18.48;23.77;96374.78;5049500;28;20482;-69
2021/04/09 10:19:25;;;;;;;4.63;1.60;;;;;;;18.13;18.45;96379.66;5028705;28;20126;-70
2021/04/09 10:21:52;;;;;;;3.53;1.73;;;;;;;18.28;19.70;96373.25;5036190;28;20052;-69
2021/04/09 10:24:20;;;;;;;4.47;1.75;;;;;;;18.16;19.54;96381.66;5046126;28;20045;-69
2021/04/09 10:26:51;;;;;;;4.03;1.58;;;;;;;18.25;20.91;96376.72;5047105;28;20064;-68
2021/04/09 10:29:20;;;;;;;4.32;1.50;;;;;;;18.45;22.75;96367.22;5048682;28;20057;-69
2021/04/09 10:31:46;;;;;;;7.25;1.80;;;;;;;18.57;20.38;96362.69;5048418;28;20056;-69
2021/04/09 10:34:13;;;;;;;4.60;1.98;;;;;;;18.41;19.65;96355.34;5048742;28;20184;-69
2021/04/09 10:36:40;;;;;;;5.18;1.63;;;;;;;18.39;21.37;96357.69;5048594;28;20071;-68
2021/04/09 10:39:11;;;;;;;3.80;1.80;;;;;;;17.86;18.34;96357.53;5048289;28;20129;-69
2021/04/09 10:41:39;;;;;;;5.30;2.15;;;;;;;17.84;19.74;96353.53;5049116;28;20114;-70
2021/04/09 10:44:06;;;;;;;8.25;1.80;;;;;;;17.74;18.02;96352.97;5048205;28;20049;-68
2021/04/09 10:46:37;;;;;;;3.85;1.67;;;;;;;17.69;18.52;96346.94;5049544;28;20075;-68
2021/04/09 10:49:05;;;;;;;4.88;1.73;;;;;;;17.29;17.98;96345.38;5048574;28;20056;-69
2021/04/09 10:51:33;;;;;;;5.82;2.08;;;;;;;16.97;18.67;96332.88;5049508;28;20049;-68
2021/04/09 10:53:59;;;;;;;5.55;1.80;;;;;;;16.81;19.14;96336.47;5048309;28;20063;-68
2021/04/09 10:56:26;;;;;;;4.38;1.85;;;;;;;16.88;20.88;96328.38;5048796;28;20048;-69
2021/04/09 10:58:52;;;;;;;7.80;1.58;;;;;;;16.93;19.64;96322.59;5048118;28;20587;-68
2021/04/09 11:01:24;;;;;;;4.25;1.83;;;;;;;17.10;20.58;96315.88;5048431;28;20413;-68
2021/04/09 11:03:52;;;;;;;5.45;1.83;;;;;;;17.49;20.71;96315.88;5048689;28;20049;-69
2021/04/09 11:06:19;;;;;;;4.10;1.60;;;;;;;17.54;17.98;96312.00;5048096;28;20055;-69
2021/04/09 11:08:45;;;;;;;6.75;1.83;;;;;;;17.69;20.82;96313.88;5048831;28;20594;-69
2021/04/09 11:11:12;;;;;;;3.45;1.67;;;;;;;18.06;20.69;96296.84;5050826;28;20546;-70
2021/04/09 11:13:40;;;;;;;6.47;1.95;;;;;;;18.18;19.02;96296.69;5051960;28;20056;-70
2021/04/09 11:16:09;;;;;;;5.53;2.00;;;;;;;18.23;21.49;96293.63;5050674;28;20565;-69
2021/04/09 11:18:54;;;;;;;2.88;1.27;;;;;;;17.90;17.52;96289.50;5051609;28;20049;-69
2021/04/09 11:21:43;;;;;;;4.15;1.75;;;;;;;17.57;17.87;96292.03;5050603;28;20102;-69
2021/04/09 11:24:09;;;;;;;3.72;1.90;;;;;;;17.88;18.22;96280.81;5050175;28;20041;-69
2021/04/09 11:26:35;;;;;;;3.50;1.70;;;;;;;17.80;16.96;96292.06;5051314;28;20055;-69
2021/04/09 11:29:02;;;;;;;3.10;1.90;;;;;;;17.52;17.04;96275.81;5050071;28;20428;-70
2021/04/09 11:31:28;;;;;;;2.70;1.45;;;;;;;17.26;17.16;96285.53;5051453;28;20500;-68
2021/04/09 11:34:09;;;;;;;2.92;1.63;;;;;;;17.28;17.03;96283.22;5050514;28;20412;-67
2021/04/09 11:36:41;;;;;;;4.72;1.85;;;;;;;17.08;16.98;96282.44;5051210;28;20041;-68
2021/04/09 11:39:12;;;;;;;6.35;1.77;;;;;;;16.56;17.37;96274.59;5050029;28;20057;-69